Terminal Aerodrome Forecast
Issued by NWS

Current Version | Previous Version | Graphics & Text | Print | Product List | Glossary On
Versions: 1 2 3 4 5 6 7 8 9 10 11 12 13 14 15 16 17 18 19 20
000
FTUS41 KPBZ 041139
TAFHLG
TAF
KHLG 041139Z 0412/0512 17005KT P6SM SCT250
     FM041600 22013G20KT P6SM SCT050 BKN250
     FM050200 21006KT P6SM BKN080
     FM050900 22008KT P6SM -SHRA OVC035=

USA.gov is the U.S. government's official web portal to all federal, state and local government web resources and services.